createdAt,value
2023-05-09T00:00:28.742Z,100.00
2023-05-09T00:06:39.369Z,100.00
2023-05-09T00:09:08.429Z,100.00
2023-05-09T00:15:19.638Z,100.00
2023-05-09T00:17:51.152Z,100.00
2023-05-09T00:23:13.153Z,100.00
2023-05-09T00:26:01.446Z,100.00
2023-05-09T00:28:38.455Z,100.00
2023-05-09T00:31:19.922Z,100.00
2023-05-09T00:33:57.687Z,100.00
2023-05-09T00:36:26.284Z,100.00
2023-05-09T00:49:28.563Z,100.00
2023-05-09T00:51:59.671Z,100.00
2023-05-09T00:54:31.328Z,100.00
2023-05-09T00:57:02.450Z,100.00
2023-05-09T00:59:34.531Z,100.00
2023-05-09T01:02:03.764Z,100.00
2023-05-09T01:04:43.819Z,100.00
2023-05-09T01:07:39.797Z,100.00
2023-05-09T01:10:30.017Z,100.00
2023-05-09T01:13:26.424Z,100.00
2023-05-09T01:16:08.910Z,100.00
2023-05-09T01:18:46.660Z,100.00
2023-05-09T01:21:25.421Z,100.00
2023-05-09T01:27:59.384Z,100.00
2023-05-09T01:30:46.937Z,100.00
2023-05-09T01:33:11.823Z,100.00
2023-05-09T01:35:43.187Z,100.00
2023-05-09T01:38:14.801Z,100.00
2023-05-09T01:40:46.207Z,100.00
2023-05-09T01:43:17.856Z,100.00
2023-05-09T01:45:49.033Z,100.00
2023-05-09T01:48:19.920Z,100.00
2023-05-09T01:50:52.881Z,100.00
2023-05-09T01:53:26.637Z,100.00
2023-05-09T01:55:58.265Z,100.00
2023-05-09T01:58:32.028Z,100.00
2023-05-09T02:01:05.190Z,100.00
2023-05-09T02:03:35.472Z,100.00
2023-05-09T02:06:08.776Z,100.00
2023-05-09T02:08:41.293Z,100.00
2023-05-09T02:11:13.856Z,100.00
2023-05-09T02:13:45.388Z,100.00
2023-05-09T02:16:20.704Z,100.00
2023-05-09T02:18:49.999Z,100.00
2023-05-09T02:21:25.608Z,100.00
2023-05-09T02:23:55.726Z,100.00
2023-05-09T02:26:27.295Z,100.00
2023-05-09T02:28:58.814Z,100.00
2023-05-09T02:34:59.932Z,100.00
2023-05-09T02:37:34.878Z,100.00
2023-05-09T02:40:07.952Z,100.00
2023-05-09T02:42:41.908Z,100.00
2023-05-09T02:45:14.420Z,100.00
2023-05-09T02:47:49.911Z,100.00
2023-05-09T02:50:29.507Z,100.00
2023-05-09T02:53:01.868Z,100.00
2023-05-09T02:55:32.317Z,100.00
2023-05-09T03:04:57.565Z,100.00
2023-05-09T03:07:26.923Z,100.00
2023-05-09T03:10:01.857Z,100.00
2023-05-09T03:12:38.112Z,100.00
2023-05-09T03:15:14.813Z,100.00
2023-05-09T03:17:54.578Z,100.00
2023-05-09T03:27:20.452Z,100.00
2023-05-09T03:29:58.130Z,100.00
2023-05-09T03:32:31.661Z,100.00
2023-05-09T03:35:07.274Z,100.00
2023-05-09T03:37:41.199Z,100.00
2023-05-09T03:40:13.742Z,100.00
2023-05-09T03:42:47.060Z,100.00
2023-05-09T03:49:17.668Z,100.00
2023-05-09T03:51:52.347Z,100.00
2023-05-09T03:58:00.709Z,100.00
2023-05-09T04:00:45.285Z,100.00
2023-05-09T04:03:19.384Z,100.00
2023-05-09T04:05:47.437Z,100.00
2023-05-09T04:08:22.067Z,100.00
2023-05-09T04:10:58.250Z,100.00
2023-05-09T04:17:51.532Z,100.00
2023-05-09T04:20:20.914Z,100.00
2023-05-09T04:22:52.172Z,100.00
2023-05-09T04:25:22.690Z,100.00
2023-05-09T04:31:40.211Z,100.00
2023-05-09T04:34:10.716Z,100.00
2023-05-09T04:36:45.686Z,100.00
2023-05-09T04:39:17.821Z,100.00
2023-05-09T04:44:43.671Z,100.00
2023-05-09T04:50:58.659Z,100.00
2023-05-09T04:53:31.313Z,100.00
2023-05-09T04:56:03.360Z,100.00
2023-05-09T04:58:35.224Z,100.00
2023-05-09T05:01:06.078Z,100.00
2023-05-09T05:03:39.155Z,100.00
2023-05-09T05:06:21.233Z,100.00
2023-05-09T05:08:54.920Z,100.00
2023-05-09T05:15:01.752Z,100.00
2023-05-09T05:17:41.202Z,100.00
2023-05-09T05:20:20.392Z,100.00
2023-05-09T05:22:55.040Z,100.00
2023-05-09T05:25:29.846Z,100.00
2023-05-09T05:28:05.759Z,100.00
2023-05-09T05:30:38.259Z,100.00
2023-05-09T05:33:10.460Z,100.00
2023-05-09T05:35:46.792Z,100.00
2023-05-09T05:38:21.850Z,100.00
2023-05-09T05:41:04.418Z,100.00
2023-05-09T05:43:33.358Z,100.00
2023-05-09T05:46:07.089Z,100.00
2023-05-09T05:48:47.539Z,100.00
2023-05-09T05:51:33.288Z,100.00
2023-05-09T05:54:22.718Z,100.00
2023-05-09T05:56:59.521Z,100.00
2023-05-09T05:59:32.998Z,100.00
2023-05-09T06:05:02.949Z,100.00
2023-05-09T06:07:52.168Z,100.00
2023-05-09T06:10:28.272Z,100.00
2023-05-09T06:16:19.223Z,100.00
2023-05-09T06:18:55.751Z,100.00
2023-05-09T06:21:33.235Z,100.00
2023-05-09T06:24:34.408Z,100.00
2023-05-09T06:29:38.333Z,100.00
2023-05-09T06:35:41.078Z,100.00
2023-05-09T06:38:27.594Z,100.00
2023-05-09T06:41:02.936Z,100.00
2023-05-09T06:44:00.369Z,100.00
2023-05-09T06:46:36.354Z,100.00
2023-05-09T06:49:19.325Z,100.00
2023-05-09T06:51:41.696Z,100.00
2023-05-09T06:54:21.843Z,100.00
2023-05-09T06:56:52.771Z,100.00
2023-05-09T07:03:11.039Z,100.00
2023-05-09T07:09:26.736Z,100.00
2023-05-09T07:12:02.593Z,100.00
2023-05-09T07:14:39.769Z,100.00
2023-05-09T07:19:56.367Z,100.00
2023-05-09T07:22:28.228Z,100.00
2023-05-09T07:25:08.012Z,100.00
2023-05-09T07:27:48.121Z,100.00
2023-05-09T07:30:18.830Z,100.00
2023-05-09T07:32:52.373Z,100.00
2023-05-09T07:35:43.906Z,100.00
2023-05-09T07:38:14.753Z,100.00
2023-05-09T07:40:49.453Z,100.00
2023-05-09T07:43:25.755Z,100.00
2023-05-09T07:49:26.268Z,100.00
2023-05-09T07:51:59.598Z,100.00
2023-05-09T07:54:30.129Z,100.00
2023-05-09T07:57:06.639Z,100.00
2023-05-09T08:02:46.250Z,100.00
2023-05-09T08:05:17.712Z,100.00
2023-05-09T08:07:47.183Z,100.00
2023-05-09T08:10:18.115Z,100.00
2023-05-09T08:12:49.826Z,100.00
2023-05-09T08:15:29.649Z,100.00
2023-05-09T08:18:00.393Z,100.00
2023-05-09T08:20:31.777Z,100.00
2023-05-09T08:23:12.884Z,100.00
2023-05-09T08:25:50.195Z,100.00
2023-05-09T08:28:36.842Z,100.00
2023-05-09T08:31:35.804Z,100.00
2023-05-09T08:34:07.093Z,100.00
2023-05-09T08:36:36.219Z,100.00
2023-05-09T08:42:22.417Z,88.33
2023-05-09T08:44:49.456Z,88.61
2023-05-09T08:47:20.879Z,91.89
2023-05-09T08:49:51.116Z,93.04
2023-05-09T08:52:20.582Z,96.36
2023-05-09T08:54:49.640Z,95.74
2023-05-09T08:57:18.398Z,93.39
2023-05-09T08:59:47.424Z,91.61
2023-05-09T09:02:16.743Z,89.48
2023-05-09T09:04:45.647Z,91.91
2023-05-09T09:07:16.689Z,93.12
2023-05-09T09:09:50.027Z,93.66
2023-05-09T09:12:19.531Z,93.00
2023-05-09T09:14:52.487Z,95.01
2023-05-09T09:17:23.727Z,96.44
2023-05-09T09:19:55.768Z,97.26
2023-05-09T09:22:25.045Z,97.53
2023-05-09T09:24:53.788Z,94.78
2023-05-09T09:27:22.565Z,95.37
2023-05-09T09:29:51.390Z,93.31
2023-05-09T09:32:20.116Z,92.59
2023-05-09T09:34:51.869Z,90.52
2023-05-09T09:37:24.144Z,88.72
2023-05-09T09:39:57.022Z,88.10
2023-05-09T09:42:25.730Z,84.87
2023-05-09T09:45:10.633Z,85.91
2023-05-09T09:47:42.606Z,82.86
2023-05-09T09:50:20.249Z,82.67
2023-05-09T09:52:57.060Z,78.14
2023-05-09T09:55:26.404Z,78.69
2023-05-09T09:57:55.858Z,78.63
2023-05-09T10:00:29.974Z,80.22
2023-05-09T10:03:00.807Z,80.33
2023-05-09T10:05:33.377Z,81.62
2023-05-09T10:08:06.197Z,82.14
2023-05-09T10:10:36.846Z,80.67
2023-05-09T10:13:12.069Z,80.52
2023-05-09T10:15:53.219Z,80.55
2023-05-09T10:18:16.278Z,80.13
2023-05-09T10:20:45.886Z,79.01
2023-05-09T10:23:16.450Z,79.68
2023-05-09T10:26:08.371Z,79.80
2023-05-09T10:28:39.726Z,79.78
2023-05-09T10:31:20.099Z,78.99
2023-05-09T10:33:51.360Z,79.28
2023-05-09T10:36:26.706Z,70.35
2023-05-09T10:38:56.803Z,60.57
2023-05-09T10:41:28.674Z,55.50
2023-05-09T10:43:59.695Z,55.22
2023-05-09T10:46:30.431Z,57.39
2023-05-09T10:48:59.994Z,57.89
2023-05-09T10:51:29.144Z,61.09
2023-05-09T10:53:58.079Z,60.38
2023-05-09T10:56:29.256Z,61.69
2023-05-09T10:58:58.337Z,60.44
2023-05-09T11:01:36.517Z,59.21
2023-05-09T11:04:14.358Z,59.78
2023-05-09T11:06:55.786Z,60.19
2023-05-09T11:09:28.814Z,61.80
2023-05-09T11:12:10.144Z,61.83
2023-05-09T11:14:47.170Z,59.64
2023-05-09T11:17:27.615Z,58.99
2023-05-09T11:20:01.520Z,58.51
2023-05-09T11:22:34.413Z,57.12
2023-05-09T11:25:17.246Z,55.54
2023-05-09T11:27:48.535Z,57.63
2023-05-09T11:30:19.158Z,60.82
2023-05-09T11:32:56.151Z,58.49
2023-05-09T11:35:27.058Z,57.62
2023-05-09T11:38:01.589Z,55.84
2023-05-09T11:40:31.255Z,56.96
2023-05-09T11:43:01.858Z,57.10
2023-05-09T11:45:36.655Z,56.40
2023-05-09T11:48:10.804Z,57.02
2023-05-09T11:50:42.778Z,57.53
2023-05-09T11:53:12.883Z,55.69
2023-05-09T11:55:44.733Z,57.52
2023-05-09T11:58:13.970Z,59.18
2023-05-09T12:00:49.845Z,57.61
2023-05-09T12:03:20.228Z,57.04
2023-05-09T12:05:52.015Z,56.03
2023-05-09T12:08:20.995Z,56.51
2023-05-09T12:10:49.719Z,55.73
2023-05-09T12:13:19.463Z,56.10
2023-05-09T12:15:48.640Z,56.95
2023-05-09T12:18:18.359Z,58.85
2023-05-09T12:20:51.322Z,59.35
2023-05-09T12:23:20.826Z,60.33
2023-05-09T12:25:58.045Z,60.01
2023-05-09T12:28:27.745Z,60.06
2023-05-09T12:30:57.051Z,60.33
2023-05-09T12:33:26.264Z,61.62
2023-05-09T12:36:12.747Z,62.87
2023-05-09T12:38:44.558Z,68.04
2023-05-09T12:41:30.905Z,67.45
2023-05-09T12:43:47.369Z,68.91
2023-05-09T12:46:20.826Z,68.81
2023-05-09T12:48:52.011Z,67.38
2023-05-09T12:51:22.163Z,67.51
2023-05-09T12:54:06.134Z,66.70
2023-05-09T12:56:35.799Z,68.21
2023-05-09T12:59:07.520Z,70.83
2023-05-09T13:01:45.145Z,73.27
2023-05-09T13:04:28.537Z,73.37
2023-05-09T13:07:07.929Z,75.44
2023-05-09T13:09:44.887Z,78.67
2023-05-09T13:12:18.078Z,79.03
2023-05-09T13:14:49.969Z,81.63
2023-05-09T13:17:42.524Z,84.47
2023-05-09T13:20:11.851Z,83.54
2023-05-09T13:22:48.298Z,85.07
2023-05-09T13:25:24.909Z,84.34
2023-05-09T13:27:58.347Z,84.89
2023-05-09T13:30:34.167Z,84.68
2023-05-09T13:33:16.554Z,85.64
2023-05-09T13:38:23.322Z,93.37
2023-05-09T13:41:00.237Z,99.57
2023-05-09T13:43:33.836Z,98.53
2023-05-09T13:46:06.169Z,97.97
2023-05-09T13:48:35.811Z,100.00
2023-05-09T13:51:06.311Z,100.00
2023-05-09T13:53:37.335Z,100.00
2023-05-09T13:56:06.437Z,100.00
2023-05-09T13:58:35.095Z,100.00
2023-05-09T14:01:05.077Z,100.00
2023-05-09T14:03:37.029Z,100.00
2023-05-09T14:06:13.411Z,100.00
2023-05-09T14:08:42.226Z,100.00
2023-05-09T14:11:12.150Z,100.00
2023-05-09T14:13:41.035Z,100.00
2023-05-09T14:16:10.286Z,100.00
2023-05-09T14:18:57.032Z,100.00
2023-05-09T14:21:26.139Z,100.00
2023-05-09T14:23:55.089Z,98.36
2023-05-09T14:26:25.313Z,93.99
2023-05-09T14:28:58.167Z,95.97
2023-05-09T14:31:28.643Z,99.46
2023-05-09T14:33:57.827Z,100.00
2023-05-09T14:36:27.109Z,99.43
2023-05-09T14:38:56.157Z,98.60
2023-05-09T14:41:25.017Z,96.48
2023-05-09T14:43:53.708Z,97.60
2023-05-09T14:46:25.292Z,93.79
2023-05-09T14:48:59.982Z,93.58
2023-05-09T14:51:42.689Z,92.58
2023-05-09T14:54:13.418Z,91.91
2023-05-09T14:56:43.675Z,91.18
2023-05-09T14:59:12.322Z,90.32
2023-05-09T15:01:41.072Z,91.20
2023-05-09T15:04:09.674Z,90.76
2023-05-09T15:06:38.429Z,93.30
2023-05-09T15:09:07.106Z,94.54
2023-05-09T15:11:46.799Z,96.28
2023-05-09T15:14:06.128Z,94.71
2023-05-09T15:16:37.132Z,93.72
2023-05-09T15:19:08.704Z,95.28
2023-05-09T15:21:39.045Z,95.37
2023-05-09T15:24:08.095Z,96.52
2023-05-09T15:26:36.711Z,97.33
2023-05-09T15:29:05.787Z,99.46
2023-05-09T15:31:38.021Z,100.00
2023-05-09T15:34:06.777Z,100.00
2023-05-09T15:36:46.331Z,100.00
2023-05-09T15:39:12.401Z,100.00
2023-05-09T15:41:41.064Z,100.00
2023-05-09T15:44:14.476Z,100.00
2023-05-09T15:46:46.594Z,100.00
2023-05-09T15:49:15.246Z,100.00
2023-05-09T15:51:47.114Z,100.00
2023-05-09T15:54:15.977Z,100.00
2023-05-09T15:56:44.993Z,100.00
2023-05-09T15:59:15.854Z,100.00
2023-05-09T16:01:44.247Z,100.00
2023-05-09T16:04:14.013Z,100.00
2023-05-09T16:06:47.197Z,100.00
2023-05-09T16:09:16.809Z,100.00
2023-05-09T16:11:48.179Z,100.00
2023-05-09T16:14:20.766Z,100.00
2023-05-09T16:16:51.280Z,100.00
2023-05-09T16:19:19.976Z,100.00
2023-05-09T16:21:48.877Z,100.00
2023-05-09T16:24:17.571Z,100.00
2023-05-09T16:26:48.081Z,100.00
2023-05-09T16:29:16.649Z,100.00
2023-05-09T16:31:46.918Z,100.00
2023-05-09T16:34:25.657Z,100.00
2023-05-09T16:36:54.302Z,100.00
2023-05-09T16:39:23.884Z,100.00
2023-05-09T16:42:00.812Z,100.00
2023-05-09T16:44:38.801Z,100.00
2023-05-09T16:47:09.072Z,100.00
2023-05-09T16:49:41.364Z,100.00
2023-05-09T16:52:18.664Z,100.00
2023-05-09T16:54:56.186Z,100.00
2023-05-09T16:57:27.736Z,100.00
2023-05-09T16:59:58.866Z,100.00
2023-05-09T17:02:32.834Z,100.00
2023-05-09T17:05:01.684Z,100.00
2023-05-09T17:07:33.115Z,100.00
2023-05-09T17:10:06.736Z,100.00
2023-05-09T17:12:35.373Z,100.00
2023-05-09T17:18:07.948Z,100.00
2023-05-09T17:20:37.792Z,100.00
2023-05-09T17:23:06.625Z,100.00
2023-05-09T17:25:38.951Z,100.00
2023-05-09T17:28:07.870Z,100.00
2023-05-09T17:30:36.643Z,100.00
2023-05-09T17:33:05.378Z,100.00
2023-05-09T17:35:34.247Z,100.00
2023-05-09T17:38:05.448Z,100.00
2023-05-09T17:40:34.179Z,100.00
2023-05-09T17:43:02.871Z,100.00
2023-05-09T17:45:35.009Z,100.00
2023-05-09T17:48:08.523Z,100.00
2023-05-09T17:50:37.288Z,100.00
2023-05-09T17:53:07.676Z,100.00
2023-05-09T17:55:36.765Z,100.00
2023-05-09T17:58:06.801Z,100.00
2023-05-09T18:00:35.915Z,100.00
2023-05-09T18:03:08.889Z,100.00
2023-05-09T18:05:38.411Z,100.00
2023-05-09T18:08:07.094Z,100.00
2023-05-09T18:10:35.886Z,100.00
2023-05-09T18:13:04.636Z,100.00
2023-05-09T18:15:35.141Z,100.00
2023-05-09T18:18:17.779Z,100.00
2023-05-09T18:20:53.892Z,100.00
2023-05-09T18:23:24.438Z,100.00
2023-05-09T18:25:55.550Z,100.00
2023-05-09T18:28:28.946Z,100.00
2023-05-09T18:30:59.661Z,100.00
2023-05-09T18:33:31.016Z,100.00
2023-05-09T18:36:02.682Z,100.00
2023-05-09T18:38:44.397Z,100.00
2023-05-09T18:41:15.726Z,100.00
2023-05-09T18:43:47.362Z,100.00
2023-05-09T18:49:13.849Z,100.00
2023-05-09T18:51:46.399Z,100.00
2023-05-09T18:57:01.930Z,100.00
2023-05-09T18:59:30.919Z,100.00
2023-05-09T19:01:59.872Z,100.00
2023-05-09T19:04:43.136Z,100.00
2023-05-09T19:07:23.355Z,100.00
2023-05-09T19:10:11.027Z,100.00
2023-05-09T19:12:53.369Z,100.00
2023-05-09T19:16:05.557Z,100.00
2023-05-09T19:18:39.913Z,100.00
2023-05-09T19:21:16.102Z,100.00
2023-05-09T19:23:47.765Z,100.00
2023-05-09T19:26:20.095Z,100.00
2023-05-09T19:28:49.093Z,100.00
2023-05-09T19:31:19.966Z,100.00
2023-05-09T19:33:51.848Z,100.00
2023-05-09T19:36:20.720Z,100.00
2023-05-09T19:38:49.492Z,100.00
2023-05-09T19:41:19.542Z,100.00
2023-05-09T19:43:50.424Z,100.00
2023-05-09T19:46:19.474Z,100.00
2023-05-09T19:48:55.778Z,100.00
2023-05-09T19:51:24.880Z,100.00
2023-05-09T19:53:57.167Z,100.00
2023-05-09T19:56:32.277Z,100.00
2023-05-09T19:59:02.218Z,100.00
2023-05-09T20:01:31.465Z,100.00
2023-05-09T20:04:00.502Z,100.00
2023-05-09T20:06:29.773Z,100.00
2023-05-09T20:08:58.580Z,100.00
2023-05-09T20:11:31.593Z,100.00
2023-05-09T20:14:00.399Z,100.00
2023-05-09T20:16:31.561Z,100.00
2023-05-09T20:19:02.663Z,100.00
2023-05-09T20:21:31.360Z,100.00
2023-05-09T20:24:00.145Z,100.00
2023-05-09T20:26:29.776Z,100.00
2023-05-09T20:29:00.054Z,100.00
2023-05-09T20:31:30.407Z,100.00
2023-05-09T20:33:59.547Z,100.00
2023-05-09T20:36:28.957Z,100.00
2023-05-09T20:38:58.096Z,100.00
2023-05-09T20:41:27.303Z,100.00
2023-05-09T20:43:56.016Z,100.00
2023-05-09T20:46:27.304Z,100.00
2023-05-09T20:48:55.986Z,100.00
2023-05-09T20:51:27.905Z,100.00
2023-05-09T20:53:56.490Z,100.00
2023-05-09T20:56:27.623Z,100.00
2023-05-09T20:59:06.879Z,100.00
2023-05-09T21:01:40.427Z,100.00
2023-05-09T21:04:09.280Z,100.00
2023-05-09T21:06:38.144Z,100.00
2023-05-09T21:09:08.943Z,100.00
2023-05-09T21:11:38.754Z,100.00
2023-05-09T21:14:08.221Z,100.00
2023-05-09T21:16:36.929Z,100.00
2023-05-09T21:19:06.188Z,100.00
2023-05-09T21:21:34.751Z,100.00
2023-05-09T21:24:05.348Z,100.00
2023-05-09T21:26:33.995Z,100.00
2023-05-09T21:29:02.682Z,100.00
2023-05-09T21:31:31.439Z,100.00
2023-05-09T21:34:00.964Z,100.00
2023-05-09T21:36:29.778Z,100.00
2023-05-09T21:38:58.404Z,100.00
2023-05-09T21:41:28.654Z,100.00
2023-05-09T21:43:57.265Z,100.00
2023-05-09T21:46:25.960Z,100.00
2023-05-09T21:48:55.020Z,100.00
2023-05-09T21:51:23.656Z,100.00
2023-05-09T21:53:52.323Z,100.00
2023-05-09T21:56:21.078Z,100.00
2023-05-09T21:58:51.131Z,100.00
2023-05-09T22:01:20.241Z,100.00
2023-05-09T22:03:51.333Z,100.00
2023-05-09T22:06:19.997Z,100.00
2023-05-09T22:08:48.619Z,100.00
2023-05-09T22:11:18.107Z,100.00
2023-05-09T22:13:48.361Z,100.00
2023-05-09T22:16:17.908Z,100.00
2023-05-09T22:18:46.703Z,100.00
2023-05-09T22:21:21.844Z,100.00
2023-05-09T22:23:50.808Z,100.00
2023-05-09T22:26:19.431Z,100.00
2023-05-09T22:28:49.680Z,100.00
2023-05-09T22:31:18.350Z,100.00
2023-05-09T22:33:47.013Z,100.00
2023-05-09T22:36:15.607Z,100.00
2023-05-09T22:38:44.493Z,100.00
2023-05-09T22:41:13.099Z,100.00
2023-05-09T22:43:41.928Z,100.00
2023-05-09T22:46:10.667Z,100.00
2023-05-09T22:48:39.408Z,100.00
2023-05-09T22:51:07.937Z,100.00
2023-05-09T22:53:51.361Z,100.00
2023-05-09T22:56:19.936Z,100.00
2023-05-09T22:58:48.706Z,100.00
2023-05-09T23:01:26.964Z,100.00
2023-05-09T23:03:55.616Z,100.00
2023-05-09T23:06:25.763Z,100.00
2023-05-09T23:08:54.459Z,100.00
2023-05-09T23:11:24.374Z,100.00
2023-05-09T23:13:53.376Z,100.00
2023-05-09T23:16:24.937Z,100.00
2023-05-09T23:18:53.514Z,100.00
2023-05-09T23:21:22.238Z,100.00
2023-05-09T23:23:51.076Z,100.00
2023-05-09T23:26:20.866Z,100.00
2023-05-09T23:28:49.578Z,100.00
2023-05-09T23:31:18.806Z,100.00
2023-05-09T23:33:47.565Z,100.00
2023-05-09T23:36:16.264Z,100.00
2023-05-09T23:38:44.780Z,100.00
2023-05-09T23:41:13.455Z,100.00
2023-05-09T23:43:42.071Z,100.00
2023-05-09T23:46:10.763Z,100.00
2023-05-09T23:48:39.442Z,100.00
2023-05-09T23:51:08.088Z,100.00
2023-05-09T23:53:36.747Z,100.00
2023-05-09T23:56:06.534Z,100.00
2023-05-09T23:58:35.425Z,100.00
